Time;durP1;ratioP1;P1;durP2;ratioP2;P2;SDS_P1;SDS_P2;PMS_P1;PMS_P2;Temp;Humidity;BMP_temperature;BMP_pressure;BME280_temperature;BME280_humidity;BME280_pressure;Samples;Min_cycle;Max_cycle;Signal;HPM_P1;HPM_P2
2022/02/27 00:00:48;;;;;;;1.08;0.70;;;5.90;52.60;;;;;;6244463;23;20106;-82
2022/02/27 00:03:14;;;;;;;1.80;0.50;;;5.80;52.30;;;;;;6244601;22;20333;-83
2022/02/27 00:05:39;;;;;;;1.48;0.70;;;5.80;51.40;;;;;;6244638;22;20356;-82
2022/02/27 00:08:05;;;;;;;0.70;0.60;;;5.80;51.40;;;;;;6244466;22;20007;-82
2022/02/27 00:10:31;;;;;;;0.50;0.50;;;5.80;51.40;;;;;;6244380;22;20013;-82
2022/02/27 00:12:57;;;;;;;0.77;0.73;;;5.80;51.30;;;;;;6244425;22;20458;-81
2022/02/27 00:15:23;;;;;;;0.65;0.52;;;5.80;51.10;;;;;;6242899;23;20000;-82
2022/02/27 00:17:49;;;;;;;0.50;0.50;;;6.00;50.00;;;;;;6242927;23;20054;-82
2022/02/27 00:20:15;;;;;;;0.55;0.50;;;6.00;49.30;;;;;;6242888;23;20004;-82
2022/02/27 00:22:41;;;;;;;0.73;0.73;;;6.00;49.60;;;;;;6242111;23;20008;-81
2022/02/27 00:25:08;;;;;;;0.77;0.47;;;6.10;48.30;;;;;;6243066;23;20014;-82
2022/02/27 00:27:37;;;;;;;0.57;0.57;;;6.10;47.60;;;;;;6244327;22;19996;-82
2022/02/27 00:30:07;;;;;;;0.63;0.60;;;6.20;47.50;;;;;;6244429;22;20010;-82
2022/02/27 00:32:33;;;;;;;0.50;0.50;;;6.30;47.30;;;;;;6244148;22;20440;-82
2022/02/27 00:34:59;;;;;;;0.70;0.60;;;6.30;47.40;;;;;;6244296;23;20004;-82
2022/02/27 00:37:24;;;;;;;0.40;0.40;;;6.20;47.50;;;;;;6242857;23;19997;-82
2022/02/27 00:39:50;;;;;;;0.90;0.45;;;6.20;47.10;;;;;;6244385;23;19996;-82
2022/02/27 00:42:16;;;;;;;0.40;0.40;;;6.20;47.20;;;;;;6244281;22;20050;-80
2022/02/27 00:44:42;;;;;;;0.88;0.50;;;6.30;46.60;;;;;;6244449;22;20004;-80
2022/02/27 00:47:08;;;;;;;2.15;0.50;;;6.30;47.00;;;;;;6244252;23;20035;-82
2022/02/27 00:49:34;;;;;;;0.73;0.40;;;6.30;46.70;;;;;;6244472;22;20057;-82
2022/02/27 00:52:00;;;;;;;2.28;0.60;;;6.30;46.40;;;;;;6244302;22;20008;-81
2022/02/27 00:54:26;;;;;;;1.63;0.60;;;6.30;45.90;;;;;;6244162;23;20024;-82
2022/02/27 00:56:51;;;;;;;1.30;0.50;;;6.30;46.20;;;;;;6242806;23;20004;-82
2022/02/27 00:59:19;;;;;;;0.40;0.40;;;6.30;45.20;;;;;;6242927;23;20004;-81
2022/02/27 01:01:45;;;;;;;0.50;0.50;;;6.40;45.40;;;;;;6242801;23;20055;-82
2022/02/27 01:04:11;;;;;;;0.70;0.70;;;6.40;44.60;;;;;;6242492;23;20325;-81
2022/02/27 01:06:37;;;;;;;0.40;0.40;;;6.40;44.20;;;;;;6244571;22;20004;-82
2022/02/27 01:09:04;;;;;;;1.27;0.50;;;6.40;44.60;;;;;;6244073;23;20385;-82
2022/02/27 01:11:32;;;;;;;0.55;0.55;;;6.50;44.20;;;;;;6242841;23;20009;-82
2022/02/27 01:13:58;;;;;;;2.08;0.40;;;6.50;44.70;;;;;;6242709;23;20062;-82
2022/02/27 01:16:24;;;;;;;0.50;0.50;;;6.50;44.50;;;;;;6244339;22;20383;-81
2022/02/27 01:18:51;;;;;;;0.50;0.40;;;6.50;43.30;;;;;;6244280;22;20067;-82
2022/02/27 01:21:17;;;;;;;0.77;0.63;;;6.50;43.50;;;;;;6244525;22;20313;-82
2022/02/27 01:23:44;;;;;;;0.47;0.47;;;6.60;43.60;;;;;;6244280;23;20012;-80
2022/02/27 01:26:11;;;;;;;0.63;0.63;;;6.50;43.60;;;;;;6244065;22;20005;-82
2022/02/27 01:28:38;;;;;;;0.50;0.50;;;6.50;44.20;;;;;;6245356;22;19997;-81
2022/02/27 01:31:04;;;;;;;0.80;0.80;;;6.50;44.40;;;;;;6244200;23;20004;-82
2022/02/27 01:33:30;;;;;;;0.73;0.60;;;6.50;44.20;;;;;;6246640;22;20494;-82
2022/02/27 01:35:55;;;;;;;0.75;0.43;;;6.50;43.50;;;;;;6247385;22;20000;-82
2022/02/27 01:38:21;;;;;;;0.60;0.60;;;6.60;43.00;;;;;;6247470;23;20433;-82
2022/02/27 01:40:47;;;;;;;1.15;0.80;;;6.60;43.60;;;;;;6247134;22;20004;-82
2022/02/27 01:43:13;;;;;;;1.23;0.68;;;6.50;43.10;;;;;;6246346;23;20079;-82
2022/02/27 01:45:39;;;;;;;0.88;0.40;;;6.50;42.30;;;;;;6246538;22;20005;-81
2022/02/27 01:48:05;;;;;;;0.50;0.50;;;6.50;43.00;;;;;;6244453;23;20099;-81
2022/02/27 01:50:31;;;;;;;0.40;0.40;;;6.60;42.80;;;;;;6244428;23;20000;-82
2022/02/27 01:52:57;;;;;;;1.77;0.52;;;6.60;43.00;;;;;;6246095;22;20000;-81
2022/02/27 01:55:23;;;;;;;1.92;0.50;;;6.60;42.60;;;;;;6245458;23;19996;-82
2022/02/27 01:57:49;;;;;;;0.93;0.60;;;6.60;42.50;;;;;;6245683;22;20001;-81
2022/02/27 02:00:15;;;;;;;0.70;0.60;;;6.60;42.40;;;;;;6244293;23;20020;-81
2022/02/27 02:02:46;;;;;;;0.32;0.32;;;6.60;42.30;;;;;;6244384;23;20062;-82
2022/02/27 02:05:12;;;;;;;0.88;0.55;;;6.60;42.20;;;;;;6246014;22;20027;-81
2022/02/27 02:07:40;;;;;;;0.82;0.70;;;6.60;42.50;;;;;;6245656;22;20007;-82
2022/02/27 02:10:07;;;;;;;0.55;0.55;;;6.60;42.20;;;;;;6245000;22;20069;-82
2022/02/27 02:12:33;;;;;;;0.70;0.70;;;6.60;41.70;;;;;;6245624;22;20039;-81
2022/02/27 02:14:59;;;;;;;1.27;0.60;;;6.60;42.10;;;;;;6245282;23;20313;-81
2022/02/27 02:17:26;;;;;;;1.08;0.80;;;6.60;42.00;;;;;;6243676;22;19996;-82
2022/02/27 02:19:56;;;;;;;0.50;0.40;;;6.60;41.90;;;;;;6243937;22;20309;-81
2022/02/27 02:22:22;;;;;;;0.65;0.40;;;6.60;42.60;;;;;;6243564;22;20089;-80
2022/02/27 02:24:48;;;;;;;1.75;1.00;;;6.50;42.70;;;;;;6241754;23;20035;-81
2022/02/27 02:27:14;;;;;;;2.88;0.70;;;6.50;42.90;;;;;;6243554;23;20000;-81
2022/02/27 02:29:40;;;;;;;0.80;0.80;;;6.50;42.50;;;;;;6243890;22;20027;-82
2022/02/27 02:32:06;;;;;;;0.93;0.80;;;6.50;41.90;;;;;;6245211;22;20008;-81
2022/02/27 02:34:32;;;;;;;0.82;0.73;;;6.60;41.90;;;;;;6245460;22;20010;-81
2022/02/27 02:36:58;;;;;;;0.70;0.68;;;6.50;42.30;;;;;;6243394;23;20071;-82
2022/02/27 02:39:30;;;;;;;0.75;0.52;;;6.50;42.50;;;;;;6243419;23;20004;-82
2022/02/27 02:41:57;;;;;;;0.95;0.85;;;6.50;42.30;;;;;;6243544;22;20075;-82
2022/02/27 02:44:23;;;;;;;1.27;0.60;;;6.50;41.90;;;;;;6242719;22;20004;-81
2022/02/27 02:46:49;;;;;;;0.70;0.70;;;6.50;42.10;;;;;;6244215;22;20004;-81
2022/02/27 02:49:15;;;;;;;1.48;0.85;;;6.50;42.10;;;;;;6244216;22;20027;-81
2022/02/27 02:51:42;;;;;;;2.47;0.60;;;6.50;42.30;;;;;;6244243;23;20079;-81
2022/02/27 02:54:08;;;;;;;0.50;0.50;;;6.50;41.80;;;;;;6244526;22;20429;-82
2022/02/27 02:56:34;;;;;;;0.90;0.70;;;6.50;41.40;;;;;;6245481;22;20050;-81
2022/02/27 02:59:00;;;;;;;0.65;0.65;;;6.50;42.00;;;;;;6245554;22;19996;-81
2022/02/27 03:01:27;;;;;;;1.17;0.70;;;6.40;41.90;;;;;;6245625;22;20000;-82
2022/02/27 03:03:54;;;;;;;1.23;0.55;;;6.40;41.70;;;;;;6243731;23;20008;-81
2022/02/27 03:06:20;;;;;;;0.50;0.47;;;6.40;41.90;;;;;;6245129;22;20004;-82
2022/02/27 03:08:48;;;;;;;0.88;0.60;;;6.40;41.20;;;;;;6243649;23;20022;-82
2022/02/27 03:11:15;;;;;;;2.47;0.80;;;6.40;42.00;;;;;;6244917;22;20062;-81
2022/02/27 03:13:41;;;;;;;1.08;0.68;;;6.40;42.10;;;;;;6245131;23;20393;-82
2022/02/27 03:16:06;;;;;;;0.90;0.70;;;6.40;42.30;;;;;;6243462;23;20027;-81
2022/02/27 03:18:33;;;;;;;0.70;0.70;;;6.40;41.80;;;;;;6245212;23;20332;-81
2022/02/27 03:20:59;;;;;;;2.05;0.52;;;6.40;41.70;;;;;;6243516;23;20379;-80
2022/02/27 03:23:26;;;;;;;1.30;0.70;;;6.30;41.80;;;;;;6244757;22;20004;-81
2022/02/27 03:25:52;;;;;;;0.82;0.57;;;6.30;42.00;;;;;;6243363;23;20004;-79
2022/02/27 03:28:18;;;;;;;0.70;0.70;;;6.30;41.90;;;;;;6243468;23;20008;-81
2022/02/27 03:30:44;;;;;;;0.73;0.50;;;6.40;41.50;;;;;;6243165;23;20083;-81
2022/02/27 03:33:10;;;;;;;0.70;0.60;;;6.40;41.70;;;;;;6245148;22;20397;-81
2022/02/27 03:35:36;;;;;;;0.57;0.57;;;6.30;41.20;;;;;;6245175;23;19996;-80
2022/02/27 03:38:03;;;;;;;0.77;0.70;;;6.40;41.60;;;;;;6245355;23;20020;-81
2022/02/27 03:40:29;;;;;;;2.65;0.50;;;6.40;41.60;;;;;;6244946;22;20027;-82
2022/02/27 03:42:55;;;;;;;0.60;0.60;;;6.30;41.80;;;;;;6245051;22;20428;-81
2022/02/27 03:45:21;;;;;;;0.52;0.40;;;6.30;41.70;;;;;;6243314;23;20014;-81
2022/02/27 03:47:47;;;;;;;0.95;0.63;;;6.30;42.00;;;;;;6244679;22;20004;-81
2022/02/27 03:50:14;;;;;;;1.08;0.60;;;6.30;41.90;;;;;;6244716;22;20036;-81
2022/02/27 03:52:40;;;;;;;0.47;0.47;;;6.30;41.70;;;;;;6243013;23;20035;-81
2022/02/27 03:55:09;;;;;;;1.27;0.60;;;6.30;42.20;;;;;;6244462;22;20432;-81
2022/02/27 03:57:35;;;;;;;0.80;0.43;;;6.20;41.90;;;;;;6243365;23;20335;-81
2022/02/27 04:00:01;;;;;;;0.40;0.40;;;6.20;41.80;;;;;;6245013;23;20035;-81
2022/02/27 04:02:26;;;;;;;1.80;0.63;;;6.20;41.90;;;;;;6244668;22;20113;-81
2022/02/27 04:04:52;;;;;;;0.73;0.70;;;6.20;42.50;;;;;;6243074;23;20000;-81
2022/02/27 04:07:18;;;;;;;1.15;0.60;;;6.20;42.00;;;;;;6245052;22;19996;-82
2022/02/27 04:09:43;;;;;;;0.77;0.60;;;6.20;41.60;;;;;;6244485;22;20014;-81
2022/02/27 04:12:09;;;;;;;0.60;0.60;;;6.20;41.40;;;;;;6244578;23;20012;-81
2022/02/27 04:14:35;;;;;;;0.40;0.40;;;6.20;41.70;;;;;;6244630;22;20006;-81
2022/02/27 04:17:01;;;;;;;0.60;0.60;;;6.20;42.20;;;;;;6244718;22;20001;-81
2022/02/27 04:19:27;;;;;;;0.45;0.38;;;6.10;42.20;;;;;;6244993;22;19996;-81
2022/02/27 04:21:53;;;;;;;0.65;0.65;;;6.10;41.80;;;;;;6244299;23;20008;-81
2022/02/27 04:24:19;;;;;;;0.60;0.60;;;6.10;42.10;;;;;;6244429;22;20057;-81
2022/02/27 04:26:44;;;;;;;0.70;0.55;;;6.10;41.80;;;;;;6244982;23;20000;-81
2022/02/27 04:29:10;;;;;;;0.32;0.32;;;6.10;41.90;;;;;;6243020;23;20448;-81
2022/02/27 04:31:36;;;;;;;1.63;0.55;;;6.20;41.20;;;;;;6244213;22;20409;-81
2022/02/27 04:34:03;;;;;;;0.50;0.50;;;6.20;41.10;;;;;;6244596;22;19996;-80
2022/02/27 04:36:29;;;;;;;0.65;0.65;;;6.20;40.60;;;;;;6242879;23;20000;-81
2022/02/27 04:38:55;;;;;;;0.38;0.38;;;6.30;40.50;;;;;;6244825;22;19996;-81
2022/02/27 04:41:21;;;;;;;0.40;0.40;;;6.30;40.50;;;;;;6244710;22;20008;-80
2022/02/27 04:43:48;;;;;;;0.50;0.50;;;6.20;40.60;;;;;;6244682;22;20075;-81
2022/02/27 04:46:14;;;;;;;0.57;0.57;;;6.30;40.50;;;;;;6245106;22;20004;-81
2022/02/27 04:48:41;;;;;;;1.85;0.70;;;6.30;40.50;;;;;;6244534;23;20004;-81
2022/02/27 04:51:07;;;;;;;0.50;0.50;;;6.30;40.40;;;;;;6244924;22;20008;-81
2022/02/27 04:53:34;;;;;;;0.60;0.60;;;6.30;40.80;;;;;;6244179;22;20000;-81
2022/02/27 04:56:00;;;;;;;0.60;0.60;;;6.30;40.10;;;;;;6244421;22;20004;-81
2022/02/27 04:58:25;;;;;;;1.00;0.65;;;6.30;40.80;;;;;;6244366;23;20329;-82
2022/02/27 05:00:51;;;;;;;0.60;0.47;;;6.20;40.80;;;;;;6244405;22;20000;-81
2022/02/27 05:03:17;;;;;;;0.80;0.60;;;6.20;40.60;;;;;;6244727;23;20065;-81
2022/02/27 05:05:43;;;;;;;1.25;0.60;;;6.20;40.60;;;;;;6244332;23;20522;-81
2022/02/27 05:08:09;;;;;;;0.50;0.50;;;6.20;40.60;;;;;;6244958;23;20007;-81
2022/02/27 05:10:36;;;;;;;0.60;0.60;;;6.30;40.60;;;;;;6243187;23;20023;-81
2022/02/27 05:13:02;;;;;;;0.50;0.50;;;6.20;40.70;;;;;;6244615;22;20076;-80
2022/02/27 05:15:28;;;;;;;1.65;0.50;;;6.20;40.50;;;;;;6244334;22;20023;-82
2022/02/27 05:17:54;;;;;;;0.52;0.52;;;6.20;40.70;;;;;;6244314;22;20318;-81
2022/02/27 05:20:21;;;;;;;0.50;0.50;;;6.20;40.90;;;;;;6243294;23;20008;-81
2022/02/27 05:22:48;;;;;;;0.77;0.77;;;6.20;40.30;;;;;;6242491;23;20502;-82
2022/02/27 05:25:18;;;;;;;1.52;0.70;;;6.30;40.30;;;;;;6244389;22;20004;-82
2022/02/27 05:27:45;;;;;;;3.25;0.82;;;6.20;40.20;;;;;;6244188;22;20000;-81
2022/02/27 05:30:11;;;;;;;0.70;0.70;;;6.20;40.00;;;;;;6242731;23;20087;-81
2022/02/27 05:32:37;;;;;;;0.57;0.57;;;6.20;40.60;;;;;;6244422;22;20000;-82
2022/02/27 05:35:03;;;;;;;1.65;0.50;;;6.20;40.70;;;;;;6244121;22;20435;-81
2022/02/27 05:37:29;;;;;;;0.52;0.50;;;6.10;40.70;;;;;;6242805;23;20008;-82
2022/02/27 05:39:55;;;;;;;0.95;0.70;;;6.10;40.60;;;;;;6244539;22;20016;-82
2022/02/27 05:42:21;;;;;;;0.80;0.63;;;6.10;40.50;;;;;;6244284;22;20000;-82
2022/02/27 05:44:47;;;;;;;1.15;0.70;;;6.10;40.60;;;;;;6244209;23;20008;-81
2022/02/27 05:47:13;;;;;;;2.58;0.77;;;6.10;40.70;;;;;;6244003;23;20039;-81
2022/02/27 05:49:38;;;;;;;0.70;0.70;;;6.10;41.00;;;;;;6244387;23;20455;-82
2022/02/27 05:52:04;;;;;;;0.40;0.40;;;6.00;40.90;;;;;;6244142;22;20388;-82
2022/02/27 05:54:30;;;;;;;0.60;0.60;;;6.00;41.20;;;;;;6244339;23;20027;-82
2022/02/27 05:56:56;;;;;;;0.57;0.55;;;6.00;41.80;;;;;;6244046;22;20001;-82
2022/02/27 05:59:22;;;;;;;0.57;0.57;;;6.00;41.50;;;;;;6244315;22;20393;-81
2022/02/27 06:01:48;;;;;;;0.40;0.40;;;5.90;41.50;;;;;;6243873;22;20064;-82
2022/02/27 06:04:16;;;;;;;3.00;0.80;;;5.90;41.30;;;;;;6242440;23;20091;-82
2022/02/27 06:06:42;;;;;;;0.60;0.60;;;5.90;41.30;;;;;;6244237;22;20038;-81
2022/02/27 06:09:08;;;;;;;1.10;0.60;;;5.90;41.30;;;;;;6194318;22;1149551;-82
2022/02/27 06:11:33;;;;;;;0.40;0.40;;;5.90;42.30;;;;;;6245458;22;20008;-82
2022/02/27 06:13:59;;;;;;;0.60;0.60;;;5.80;41.50;;;;;;6245436;23;19996;-82
2022/02/27 06:16:25;;;;;;;1.20;0.70;;;5.90;41.60;;;;;;6245945;22;20050;-82
2022/02/27 06:18:51;;;;;;;2.08;0.70;;;5.80;41.80;;;;;;6245353;23;20061;-81
2022/02/27 06:21:17;;;;;;;0.60;0.60;;;5.90;41.00;;;;;;6245755;22;20007;-82
2022/02/27 06:23:43;;;;;;;0.65;0.57;;;5.90;42.40;;;;;;6245865;22;19992;-82
2022/02/27 06:26:09;;;;;;;1.08;0.80;;;5.90;41.90;;;;;;6244157;23;20091;-82
2022/02/27 06:28:35;;;;;;;0.90;0.90;;;5.90;42.00;;;;;;6245520;23;20056;-81
2022/02/27 06:31:01;;;;;;;0.95;0.88;;;5.80;42.40;;;;;;6245423;23;20000;-82
2022/02/27 06:33:26;;;;;;;0.68;0.68;;;5.80;42.40;;;;;;6245189;23;20003;-82
2022/02/27 06:35:52;;;;;;;0.60;0.60;;;5.80;42.50;;;;;;6245625;22;20022;-82
2022/02/27 06:38:18;;;;;;;0.60;0.60;;;5.80;42.30;;;;;;6245787;23;19996;-81
2022/02/27 06:40:44;;;;;;;0.55;0.50;;;5.80;42.00;;;;;;6246050;23;20119;-80
2022/02/27 06:43:10;;;;;;;0.50;0.50;;;5.80;41.50;;;;;;6246408;22;20035;-82
2022/02/27 06:45:36;;;;;;;0.82;0.82;;;5.80;42.00;;;;;;6246804;22;20007;-82
2022/02/27 06:48:02;;;;;;;0.70;0.70;;;5.80;42.30;;;;;;6244962;23;20008;-81
2022/02/27 06:50:28;;;;;;;0.40;0.40;;;5.80;42.60;;;;;;6246992;22;20004;-81
2022/02/27 06:52:53;;;;;;;0.57;0.57;;;5.80;42.10;;;;;;6245477;23;20000;-82
2022/02/27 06:55:19;;;;;;;0.50;0.50;;;5.80;42.40;;;;;;6247295;23;20032;-81
2022/02/27 06:57:47;;;;;;;0.45;0.45;;;5.90;41.90;;;;;;6246952;22;20000;-81
2022/02/27 07:00:14;;;;;;;0.70;0.70;;;5.90;42.80;;;;;;6247096;22;20309;-81
2022/02/27 07:02:40;;;;;;;0.63;0.63;;;6.00;42.00;;;;;;6245429;23;19996;-80
2022/02/27 07:05:07;;;;;;;1.00;0.60;;;6.00;42.30;;;;;;6247200;22;20000;-81
2022/02/27 07:07:34;;;;;;;0.57;0.57;;;6.00;41.80;;;;;;6247028;22;20055;-82
2022/02/27 07:10:00;;;;;;;0.47;0.47;;;6.00;42.20;;;;;;6245161;23;20244;-81
2022/02/27 07:12:30;;;;;;;0.60;0.60;;;6.10;42.70;;;;;;6246628;22;20005;-81
2022/02/27 07:14:56;;;;;;;0.50;0.50;;;6.10;42.40;;;;;;6246961;22;20336;-81
2022/02/27 07:17:22;;;;;;;1.00;0.80;;;6.10;42.10;;;;;;6246842;22;19997;-81
2022/02/27 07:19:47;;;;;;;0.68;0.52;;;6.20;41.10;;;;;;6246941;23;20003;-82
2022/02/27 07:22:13;;;;;;;0.73;0.73;;;6.30;40.80;;;;;;6244889;23;20091;-81
2022/02/27 07:24:39;;;;;;;0.52;0.52;;;6.40;40.70;;;;;;6246777;23;20008;-81
2022/02/27 07:27:05;;;;;;;0.80;0.60;;;6.40;40.90;;;;;;6246294;22;20436;-81
2022/02/27 07:29:32;;;;;;;1.27;0.60;;;6.50;41.20;;;;;;6246152;22;20083;-80
2022/02/27 07:31:58;;;;;;;3.20;2.90;;;6.60;40.40;;;;;;6246307;22;20004;-81
2022/02/27 07:34:24;;;;;;;1.90;1.80;;;6.70;41.70;;;;;;6246762;22;20007;-82
2022/02/27 07:36:51;;;;;;;1.67;0.80;;;6.70;41.20;;;;;;6246928;22;19996;-81
2022/02/27 07:39:19;;;;;;;1.45;1.33;;;6.70;40.50;;;;;;6245193;23;20007;-81
2022/02/27 07:41:45;;;;;;;0.57;0.57;;;6.80;40.40;;;;;;6246688;22;20470;-80
2022/02/27 07:44:12;;;;;;;0.73;0.73;;;6.90;41.10;;;;;;6246221;22;20521;-82
2022/02/27 07:46:38;;;;;;;1.40;1.30;;;6.90;39.80;;;;;;6246522;22;20000;-81
2022/02/27 07:49:04;;;;;;;2.28;0.80;;;6.90;40.50;;;;;;6245139;23;20011;-82
2022/02/27 07:51:30;;;;;;;0.80;0.70;;;6.90;41.80;;;;;;6246947;22;20004;-82
2022/02/27 07:53:56;;;;;;;0.70;0.70;;;7.00;40.90;;;;;;6246225;23;20420;-80
2022/02/27 07:56:22;;;;;;;0.73;0.68;;;7.10;41.60;;;;;;6244584;23;20000;-81
2022/02/27 07:58:48;;;;;;;0.70;0.50;;;7.10;40.10;;;;;;6246191;22;20007;-81
2022/02/27 08:01:13;;;;;;;1.67;0.65;;;7.10;39.30;;;;;;6245415;22;20004;-81
2022/02/27 08:03:39;;;;;;;0.70;0.70;;;7.20;38.90;;;;;;6243720;23;20004;-81
2022/02/27 08:06:05;;;;;;;0.60;0.60;;;7.20;39.10;;;;;;6245849;23;20005;-82
2022/02/27 08:08:31;;;;;;;5.75;5.35;;;7.30;39.20;;;;;;6245757;22;20026;-80
2022/02/27 08:10:56;;;;;;;4.30;3.70;;;7.60;55.90;;;;;;6245704;22;20008;-77
2022/02/27 08:13:22;;;;;;;4.45;4.15;;;7.80;52.40;;;;;;6245578;23;20324;-76
2022/02/27 08:15:48;;;;;;;2.20;1.83;;;8.00;55.70;;;;;;6246058;22;20079;-78
2022/02/27 08:18:16;;;;;;;5.28;2.33;;;8.00;45.80;;;;;;6245867;23;19996;-77
2022/02/27 08:20:42;;;;;;;1.95;1.85;;;8.10;48.40;;;;;;6245899;22;20011;-77
2022/02/27 08:23:08;;;;;;;1.65;1.58;;;8.10;47.10;;;;;;6245704;22;20015;-77
2022/02/27 08:25:34;;;;;;;1.05;0.90;;;8.20;47.30;;;;;;6244144;23;20083;-77
2022/02/27 08:28:00;;;;;;;0.50;0.50;;;8.20;45.60;;;;;;6245856;22;20001;-81
2022/02/27 08:30:25;;;;;;;0.55;0.55;;;8.10;38.70;;;;;;6245722;23;20015;-81
2022/02/27 08:32:51;;;;;;;0.63;0.60;;;8.00;37.90;;;;;;6246000;22;20000;-80
2022/02/27 08:35:17;;;;;;;0.60;0.60;;;8.00;38.70;;;;;;6245954;22;20020;-81
2022/02/27 08:37:44;;;;;;;0.88;0.88;;;8.00;37.00;;;;;;6245759;22;20432;-81
2022/02/27 08:40:10;;;;;;;0.75;0.60;;;7.90;37.90;;;;;;6245634;22;20458;-81
2022/02/27 08:42:36;;;;;;;0.57;0.40;;;7.90;36.70;;;;;;6242336;23;20075;-81
2022/02/27 08:45:02;;;;;;;0.60;0.60;;;7.90;37.70;;;;;;6244947;22;20007;-81
2022/02/27 08:47:28;;;;;;;0.47;0.47;;;7.90;36.40;;;;;;6244927;22;20007;-80
2022/02/27 08:49:54;;;;;;;0.93;0.50;;;7.90;37.90;;;;;;6244687;22;20001;-81
2022/02/27 08:52:20;;;;;;;0.50;0.50;;;7.90;37.30;;;;;;6244776;22;20278;-81
2022/02/27 08:54:48;;;;;;;0.50;0.50;;;8.00;37.90;;;;;;6246459;22;20459;-81
2022/02/27 08:57:14;;;;;;;0.85;0.70;;;8.00;37.10;;;;;;6244671;23;20000;-81
2022/02/27 08:59:40;;;;;;;0.47;0.47;;;8.00;36.50;;;;;;6246060;22;20008;-81
2022/02/27 09:02:07;;;;;;;1.70;0.60;;;8.00;35.10;;;;;;6246082;22;20000;-81
2022/02/27 09:04:32;;;;;;;0.45;0.45;;;8.10;36.40;;;;;;6246253;22;20459;-81
2022/02/27 09:06:58;;;;;;;0.50;0.50;;;8.00;36.60;;;;;;6246276;22;20000;-80
2022/02/27 09:09:24;;;;;;;0.60;0.60;;;8.00;36.10;;;;;;6244211;23;20078;-81
2022/02/27 09:11:50;;;;;;;1.85;0.70;;;8.10;35.20;;;;;;6245990;23;20328;-81
2022/02/27 09:14:15;;;;;;;0.55;0.40;;;8.00;35.30;;;;;;6245883;22;20023;-80
2022/02/27 09:16:41;;;;;;;0.40;0.40;;;8.00;34.30;;;;;;6246276;23;20543;-81
2022/02/27 09:19:07;;;;;;;1.10;1.00;;;8.10;35.20;;;;;;6246269;23;20000;-81
2022/02/27 09:21:32;;;;;;;2.92;0.60;;;8.10;34.20;;;;;;6245844;22;20026;-81
2022/02/27 09:23:58;;;;;;;1.02;0.60;;;8.10;34.60;;;;;;6246053;23;20000;-81
2022/02/27 09:26:24;;;;;;;3.58;1.38;;;8.10;34.40;;;;;;6245814;22;20429;-81
2022/02/27 09:28:51;;;;;;;0.47;0.47;;;8.10;36.00;;;;;;6246002;22;20000;-81
2022/02/27 09:31:17;;;;;;;0.40;0.40;;;8.10;34.30;;;;;;6245900;22;20005;-80
2022/02/27 09:33:42;;;;;;;1.08;0.50;;;8.10;33.60;;;;;;6246043;22;20007;-81
2022/02/27 09:36:10;;;;;;;0.57;0.57;;;8.10;33.40;;;;;;6245658;22;20322;-81
2022/02/27 09:38:40;;;;;;;1.02;0.40;;;8.20;35.00;;;;;;6246163;22;20897;-80
2022/02/27 09:41:08;;;;;;;0.80;0.50;;;8.40;37.30;;;;;;6244188;23;20000;-81
2022/02/27 09:43:35;;;;;;;0.77;0.43;;;8.50;37.20;;;;;;6245833;22;20012;-81
2022/02/27 09:46:00;;;;;;;0.75;0.68;;;8.50;36.20;;;;;;6244121;23;20018;-80
2022/02/27 09:48:27;;;;;;;1.45;0.80;;;8.60;36.00;;;;;;6245653;23;20035;-80
2022/02/27 09:50:53;;;;;;;1.63;0.77;;;8.60;35.40;;;;;;6245533;22;20027;-81
2022/02/27 09:53:19;;;;;;;0.73;0.73;;;8.60;34.90;;;;;;6245248;22;20436;-80
2022/02/27 09:55:45;;;;;;;0.80;0.80;;;8.60;35.10;;;;;;6243528;23;20000;-80
2022/02/27 09:58:11;;;;;;;0.70;0.70;;;8.70;37.10;;;;;;6243998;23;20079;-81
2022/02/27 10:00:37;;;;;;;2.70;0.90;;;8.80;37.50;;;;;;6245643;22;20432;-81
2022/02/27 10:03:08;;;;;;;1.08;0.80;;;8.90;37.00;;;;;;6243990;23;20011;-81
2022/02/27 10:05:39;;;;;;;0.57;0.57;;;9.00;37.50;;;;;;6244262;23;20008;-81
2022/02/27 10:08:07;;;;;;;0.65;0.60;;;8.90;35.00;;;;;;6245803;22;20008;-81
2022/02/27 10:10:33;;;;;;;0.63;0.40;;;8.90;33.40;;;;;;6245579;22;20008;-80
2022/02/27 10:12:59;;;;;;;0.52;0.52;;;8.80;34.60;;;;;;6243980;23;20427;-81
2022/02/27 10:15:26;;;;;;;0.55;0.55;;;8.80;35.70;;;;;;6245439;22;20004;-80
2022/02/27 10:17:53;;;;;;;0.65;0.65;;;8.90;37.90;;;;;;6244125;23;20075;-81
2022/02/27 10:20:24;;;;;;;0.82;0.82;;;9.10;36.90;;;;;;6245725;22;20076;-80
2022/02/27 10:22:53;;;;;;;0.50;0.50;;;9.20;37.20;;;;;;6245572;22;20355;-80
2022/02/27 10:25:26;;;;;;;1.20;0.77;;;9.20;37.10;;;;;;6245320;22;20129;-80
2022/02/27 10:27:57;;;;;;;0.50;0.50;;;9.20;37.10;;;;;;6245549;22;20082;-81
2022/02/27 10:30:36;;;;;;;0.40;0.40;;;9.20;36.70;;;;;;6245356;22;19996;-80
2022/02/27 10:33:07;;;;;;;2.70;0.68;;;9.20;36.70;;;;;;6245050;22;20047;-81
2022/02/27 10:35:45;;;;;;;1.13;0.77;;;9.20;32.70;;;;;;6245131;22;20528;-81
2022/02/27 10:38:13;;;;;;;0.50;0.50;;;9.20;33.70;;;;;;6245294;22;20012;-80
2022/02/27 10:40:44;;;;;;;1.00;0.75;;;9.30;33.90;;;;;;6243444;23;20000;-80
2022/02/27 10:43:11;;;;;;;0.68;0.57;;;9.30;33.30;;;;;;6244941;22;20343;-81
2022/02/27 10:45:38;;;;;;;0.52;0.47;;;9.40;34.70;;;;;;6244841;22;20087;-80
2022/02/27 10:48:07;;;;;;;0.63;0.60;;;9.60;35.50;;;;;;6245153;22;20058;-81
2022/02/27 10:50:34;;;;;;;0.75;0.70;;;9.60;36.00;;;;;;6245037;22;20004;-81
2022/02/27 10:53:01;;;;;;;2.03;1.17;;;9.80;35.60;;;;;;6245062;22;19996;-80
2022/02/27 10:55:27;;;;;;;1.27;0.57;;;9.80;36.50;;;;;;6244393;22;20000;-80
2022/02/27 10:57:54;;;;;;;1.38;0.60;;;9.80;33.90;;;;;;6242943;23;20050;-80
2022/02/27 11:00:34;;;;;;;0.68;0.68;;;9.80;34.10;;;;;;6245109;22;19988;-80
2022/02/27 11:03:02;;;;;;;0.50;0.45;;;10.10;35.50;;;;;;6244740;22;19996;-80
2022/02/27 11:05:34;;;;;;;0.65;0.43;;;10.10;34.90;;;;;;6242787;23;20590;-80
2022/02/27 11:08:02;;;;;;;1.00;0.77;;;10.10;34.00;;;;;;6245002;22;20003;-79
2022/02/27 11:10:32;;;;;;;0.68;0.68;;;10.20;32.00;;;;;;6244768;22;20039;-80
2022/02/27 11:12:59;;;;;;;0.85;0.60;;;10.10;32.50;;;;;;6244596;22;19996;-80
2022/02/27 11:15:29;;;;;;;0.70;0.70;;;10.20;34.40;;;;;;6245005;22;20436;-79
2022/02/27 11:17:55;;;;;;;0.68;0.68;;;10.30;32.50;;;;;;6244785;22;20019;-80
2022/02/27 11:20:22;;;;;;;0.60;0.60;;;10.30;30.90;;;;;;6244785;23;20075;-80
2022/02/27 11:22:50;;;;;;;0.70;0.70;;;10.40;32.80;;;;;;6244649;22;20003;-80
2022/02/27 11:25:17;;;;;;;0.68;0.52;;;10.50;33.30;;;;;;6244583;22;20000;-80
2022/02/27 11:27:53;;;;;;;0.70;0.70;;;10.50;32.60;;;;;;6244840;22;20486;-80
2022/02/27 11:30:24;;;;;;;2.35;0.70;;;10.60;34.50;;;;;;6244812;22;20001;-80
2022/02/27 11:32:55;;;;;;;2.42;1.10;;;10.80;35.20;;;;;;6244619;22;19996;-80
2022/02/27 11:35:33;;;;;;;0.90;0.90;;;10.90;35.80;;;;;;6244567;22;20446;-81
2022/02/27 11:37:59;;;;;;;0.65;0.65;;;11.00;35.30;;;;;;6244327;22;19996;-80
2022/02/27 11:40:28;;;;;;;0.70;0.70;;;11.00;34.40;;;;;;6244703;22;20000;-81
2022/02/27 11:43:01;;;;;;;0.45;0.45;;;11.00;33.20;;;;;;6244464;22;20000;-80
2022/02/27 11:45:36;;;;;;;0.50;0.50;;;11.00;33.00;;;;;;6244583;22;20027;-80
2022/02/27 11:48:06;;;;;;;0.55;0.55;;;11.00;32.20;;;;;;6243847;22;20008;-80
2022/02/27 11:50:39;;;;;;;2.75;0.85;;;11.00;32.50;;;;;;6244457;22;20127;-80
2022/02/27 11:53:27;;;;;;;1.38;1.27;;;11.00;32.00;;;;;;6244338;22;19996;-81
2022/02/27 11:55:56;;;;;;;1.98;0.98;;;11.10;33.80;;;;;;6244563;22;20004;-80
2022/02/27 11:58:27;;;;;;;0.70;0.70;;;11.20;33.40;;;;;;6244359;22;20003;-80
2022/02/27 12:01:01;;;;;;;0.63;0.63;;;11.20;33.60;;;;;;6243168;23;20008;-80
2022/02/27 12:03:29;;;;;;;0.77;0.75;;;11.20;33.30;;;;;;6242985;22;20030;-79
2022/02/27 12:05:59;;;;;;;2.53;0.77;;;11.30;34.20;;;;;;6243249;23;20050;-80
2022/02/27 12:08:54;;;;;;;1.30;0.70;;;11.40;34.70;;;;;;6243107;22;20000;-80
2022/02/27 12:11:33;;;;;;;0.68;0.68;;;11.40;31.50;;;;;;6242777;22;20011;-80
2022/02/27 12:14:08;;;;;;;1.48;1.27;;;11.40;30.70;;;;;;6243030;22;20051;-80
2022/02/27 12:16:45;;;;;;;2.00;0.60;;;11.40;30.90;;;;;;6241413;23;20010;-79
2022/02/27 12:19:32;;;;;;;0.98;0.98;;;11.30;30.00;;;;;;6245639;22;20066;-80
2022/02/27 12:21:59;;;;;;;1.17;0.85;;;11.40;31.10;;;;;;6245195;22;20004;-77
2022/02/27 12:24:26;;;;;;;0.60;0.60;;;11.40;32.00;;;;;;6245620;22;20007;-80
2022/02/27 12:27:02;;;;;;;1.00;0.80;;;11.50;31.60;;;;;;6243608;23;20043;-79
2022/02/27 12:29:33;;;;;;;1.45;0.90;;;11.50;33.70;;;;;;6245698;22;20000;-80
2022/02/27 12:32:03;;;;;;;1.00;0.68;;;11.60;33.20;;;;;;6245523;22;20039;-79
2022/02/27 12:34:29;;;;;;;1.00;0.90;;;11.70;31.90;;;;;;6244863;23;20053;-80
2022/02/27 12:36:57;;;;;;;1.27;0.80;;;11.70;32.30;;;;;;6244543;23;20004;-80
2022/02/27 12:39:24;;;;;;;1.30;1.20;;;11.70;31.80;;;;;;6244709;22;20003;-80
2022/02/27 12:41:55;;;;;;;0.85;0.85;;;11.80;32.50;;;;;;6244353;22;20012;-80
2022/02/27 12:44:26;;;;;;;0.75;0.75;;;11.90;31.20;;;;;;6244642;22;20058;-80
2022/02/27 12:46:56;;;;;;;0.90;0.90;;;11.80;30.90;;;;;;6244550;23;20058;-80
2022/02/27 12:52:13;;;;;;;0.75;0.75;;;11.80;30.40;;;;;;6243916;23;20057;-79
2022/02/27 12:54:39;;;;;;;1.30;1.13;;;11.80;30.60;;;;;;6244427;22;20008;-79
2022/02/27 12:57:08;;;;;;;0.70;0.70;;;11.80;31.20;;;;;;6242639;23;20005;-79